Flight Track Log - Related Links

Times and Time Zones

All times are in EDT time to prevent confusion due to time zone crossing. See the TAM3545 flight status page for this flight to view local times or setup timezone preferences in your user account.

Time Position Orientation Groundspeed Altitude Reporting Facility
EDT Latitude Longitude Course Direction KTS MPH feet Rate Location/Type
Sat 02:11:00 AM -5.0741 -48.1591 175° South  Level Estimated
Sat 02:12:00 AM -5.1896 -48.1491 175° South  Level Estimated
Sat 02:13:00 AM -5.3051 -48.1392 175° South  Level Estimated
Sat 02:14:00 AM -5.4205 -48.1292 175° South  Level Estimated
Sat 02:15:00 AM -5.5360 -48.1192 175° South  Level Estimated
Sat 02:16:00 AM -5.6514 -48.1093 175° South  Level Estimated
Sat 02:17:00 AM -5.7669 -48.0993 175° South  Level Estimated
Sat 02:18:00 AM -5.8824 -48.0893 175° South  Level Estimated
Sat 02:19:00 AM -5.9978 -48.0793 175° South  Level Estimated
Sat 02:20:00 AM -6.1133 -48.0693 175° South  Level Estimated
Sat 02:21:00 AM -6.2287 -48.0593 175° South  Level Estimated
Sat 02:22:00 AM -6.3442 -48.0494 175° South  Level Estimated
Sat 02:23:00 AM -6.4597 -48.0393 175° South  Level Estimated
Sat 02:24:00 AM -6.5751 -48.0293 175° South  Level Estimated
Sat 02:25:00 AM -6.6906 -48.0193 175° South  Level Estimated
Sat 02:26:00 AM -6.8060 -48.0093 175° South  Level Estimated
Sat 02:27:00 AM -6.9215 -47.9993 175° South  Level Estimated
Sat 02:28:00 AM -7.0370 -47.9893 175° South  Level Estimated
Sat 02:29:00 AM -7.1524 -47.9792 175° South  Level Estimated
Sat 02:30:00 AM -7.2679 -47.9692 175° South  Level Estimated
Sat 02:31:00 AM -7.3833 -47.9591 175° South  Level Estimated
Sat 02:32:00 AM -7.4988 -47.9491 175° South  Level Estimated
Sat 02:33:00 AM -7.6143 -47.9390 175° South  Level Estimated
Sat 02:34:00 AM -7.7297 -47.9290 175° South  Level Estimated
Sat 02:35:00 AM -7.8452 -47.9189 175° South  Level Estimated
Sat 02:36:00 AM -7.9606 -47.9089 175° South  Level Estimated
Sat 02:37:00 AM -8.0761 -47.8988 175° South  Level Estimated
Sat 02:38:00 AM -8.1916 -47.8887 175° South  Level Estimated
Sat 02:39:00 AM -8.3070 -47.8786 175° South  Level Estimated
Sat 02:40:00 AM -8.4225 -47.8685 175° South  Level Estimated
Sat 02:41:00 AM -8.5379 -47.8584 175° South  Level Estimated
Sat 02:42:00 AM -8.6534 -47.8483 175° South  Level Estimated
Sat 02:43:00 AM -8.7689 -47.8382 175° South  Level Estimated
Sat 02:44:00 AM -8.8843 -47.8281 175° South  Level Estimated
Sat 02:45:00 AM -8.9998 -47.8180 175° South  Level Estimated
Sat 02:46:00 AM -9.1152 -47.8078 175° South  Level Estimated
Sat 02:47:00 AM -9.2307 -47.7977 175° South  Level Estimated
Sat 02:48:00 AM -9.3462 -47.7876 175° South  Level Estimated
Sat 02:49:00 AM -9.4616 -47.7774 175° South  Level Estimated
Sat 02:50:00 AM -9.5771 -47.7673 175° South  Level Estimated
Sat 02:51:00 AM -9.6925 -47.7571 175° South  Level Estimated
Sat 02:52:00 AM -9.8080 -47.7469 175° South  Level Estimated
Sat 02:53:00 AM -9.9234 -47.7368 175° South  Level Estimated
Sat 02:54:00 AM -10.0389 -47.7266 175° South  Level Estimated
Sat 02:55:00 AM -10.1543 -47.7164 175° South  Level Estimated
Sat 02:56:00 AM -10.2698 -47.7062 175° South  Level Estimated
Sat 02:57:00 AM -10.3852 -47.6960 175° South  Level Estimated
Sat 02:58:00 AM -10.5007 -47.6858 175° South  Level Estimated
Sat 02:59:00 AM -10.6161 -47.6755 175° South  Level Estimated
Sat 03:00:00 AM -10.7316 -47.6653 175° South  Level Estimated
Sat 03:01:00 AM -10.8470 -47.6551 175° South  Level Estimated
Sat 03:02:00 AM -10.9625 -47.6448 175° South  Level Estimated
Sat 03:03:00 AM -11.0779 -47.6346 175° South  Level Estimated
Sat 03:04:00 AM -11.1934 -47.6243 175° South  Level Estimated
Sat 03:05:00 AM -11.3088 -47.6141 175° South  Level Estimated
Sat 03:06:00 AM -11.4243 -47.6038 175° South  Level Estimated
Sat 03:07:00 AM -11.5397 -47.5935 175° South  Level Estimated
Sat 03:08:00 AM -11.6552 -47.5832 175° South  Level Estimated
Sat 03:09:00 AM -11.7706 -47.5729 175° South  Level Estimated
Sat 03:10:00 AM -11.8861 -47.5626 175° South  Level Estimated
Sat 03:11:00 AM -12.0015 -47.5523 175° South  Level Estimated
Sat 03:12:00 AM -12.1170 -47.5419 175° South  Level Estimated
Sat 03:13:00 AM -12.2324 -47.5316 175° South  Level Estimated
Sat 03:14:00 AM -12.3479 -47.5212 175° South  Level Estimated
Sat 03:15:00 AM -12.4633 -47.5109 175° South  Level Estimated
Sat 03:16:00 AM -12.5788 -47.5005 175° South  Level Estimated
Sat 03:17:00 AM -12.6942 -47.4902 175° South  Level Estimated
Sat 03:18:00 AM -12.8097 -47.4798 175° South  Level Estimated
Sat 03:19:00 AM -12.9251 -47.4694 175° South  Level Estimated
Sat 03:20:00 AM -13.0406 -47.4590 175° South  Level Estimated
Sat 03:21:00 AM -13.1560 -47.4486 175° South  Level Estimated
Sat 03:22:00 AM -13.2714 -47.4381 175° South  Level Estimated
Sat 03:23:00 AM -13.3869 -47.4277 175° South  Level Estimated
Sat 03:24:00 AM -13.5023 -47.4173 175° South  Level Estimated
Sat 03:25:00 AM -13.6178 -47.4068 175° South  Level Estimated
Sat 03:26:00 AM -13.7332 -47.3964 175° South  Level Estimated
Sat 03:27:00 AM -13.8486 -47.3859 175° South  Level Estimated
Sat 03:28:00 AM -13.9641 -47.3754 175° South  Level Estimated
Sat 03:29:00 AM -14.0795 -47.3649 175° South  Level Estimated
Sat 03:30:00 AM -14.1950 -47.3544 175° South  Level Estimated
Sat 03:31:00 AM -14.3104 -47.3439 175° South  Level Estimated
Sat 03:32:00 AM -14.4258 -47.3334 175° South  Level Estimated
Sat 03:33:00 AM -14.5413 -47.3228 175° South  Level Estimated
Sat 03:34:00 AM -14.6567 -47.3123 175° South  Level Estimated
Sat 03:35:00 AM -14.7722 -47.3017 175° South  Level Estimated
Sat 03:36:00 AM -14.8876 -47.2912 175° South  Level Estimated
Sat 03:37:00 AM -15.0030 -47.2806 175° South  Level Estimated
Sat 03:38:00 AM -15.1185 -47.2700 175° South  Level Estimated
Sat 03:39:00 AM -15.2339 -47.2594 175° South  Level Estimated
Sat 03:40:00 AM -15.3493 -47.2488 175° South  Level Estimated
Sat 03:41:00 AM -15.4648 -47.2381 175° South  Level Estimated
Sat 03:42:00 AM -15.5802 -47.2275 175° South  Level Estimated
Sat 03:43:00 AM -15.6956 -47.2169 175° South  Level Estimated
Sat 03:44:00 AM -15.8111 -47.2062 175° South  Level Estimated
Sat 03:45:00 AM -15.9265 -47.1955 175° South  Level Estimated
Sat 03:46:00 AM -16.0419 -47.1848 175° South  Level Estimated
Sat 03:47:00 AM -16.1574 -47.1741 175° South  Level Estimated
Sat 03:48:00 AM -16.2728 -47.1634 175° South  Level Estimated
Sat 03:49:00 AM -16.3882 -47.1527 175° South  Level Estimated
Sat 03:50:00 AM -16.5037 -47.1419 175° South  Level Estimated
Sat 03:51:00 AM -16.6191 -47.1312 175° South  Level Estimated
Sat 03:52:00 AM -16.7345 -47.1204 175° South  Level Estimated
Sat 03:53:00 AM -16.8499 -47.1096 175° South  Level Estimated
Sat 03:54:00 AM -16.9654 -47.0989 175° South  Level Estimated
Sat 03:55:00 AM -17.0808 -47.0881 175° South  Level Estimated
Sat 03:56:00 AM -17.1962 -47.0772 175° South  Level Estimated
Sat 03:57:00 AM -17.3117 -47.0664 175° South  Level Estimated
Sat 03:58:00 AM -17.4271 -47.0556 175° South  Level Estimated
Sat 03:59:00 AM -17.5425 -47.0447 175° South  Level Estimated
Sat 04:00:00 AM -17.6579 -47.0338 175° South  Level Estimated
Sat 04:01:00 AM -17.7733 -47.0229 175° South  Level Estimated
Sat 04:02:00 AM -17.8888 -47.0121 175° South  Level Estimated
Sat 04:03:00 AM -18.0042 -47.0011 175° South  Level Estimated
Sat 04:04:00 AM -18.1196 -46.9902 175° South  Level Estimated
Sat 04:05:00 AM -18.2350 -46.9793 175° South  Level Estimated
Sat 04:06:00 AM -18.3505 -46.9683 175° South  Level Estimated
Sat 04:07:00 AM -18.4659 -46.9573 175° South  Level Estimated
Sat 04:08:00 AM -18.5813 -46.9464 175° South  Level Estimated
Sat 04:09:00 AM -18.6967 -46.9353 175° South  Level Estimated
Sat 04:10:00 AM -18.8121 -46.9243 175° South  Level Estimated
Sat 04:11:00 AM -18.9275 -46.9133 175° South  Level Estimated
Sat 04:12:00 AM -19.0430 -46.9022 175° South  Level Estimated
Sat 04:13:00 AM -19.1584 -46.8912 175° South  Level Estimated
Sat 04:14:00 AM -19.2738 -46.8801 175° South  Level Estimated
Sat 04:15:00 AM -19.3892 -46.8690 175° South  Level Estimated
Sat 04:16:00 AM -19.5046 -46.8579 175° South  Level Estimated
Sat 04:17:00 AM -19.6200 -46.8468 175° South  Level Estimated
Sat 04:18:00 AM -19.7355 -46.8356 175° South  Level Estimated
Sat 04:19:00 AM -19.8509 -46.8245 175° South  Level Estimated
Sat 04:20:00 AM -19.9663 -46.8133 175° South  Level Estimated
Sat 04:21:00 AM -20.0817 -46.8021 175° South  Level Estimated
Sat 04:22:00 AM -20.1971 -46.7909 175° South  Level Estimated
Sat 04:23:00 AM -20.3125 -46.7797 175° South  Level Estimated
Sat 04:24:00 AM -20.4279 -46.7685 175° South  Level Estimated
Sat 04:25:00 AM -20.5433 -46.7572 175° South  Level Estimated
Sat 04:26:00 AM -20.6587 -46.7459 175° South  Level Estimated
Sat 04:27:00 AM -20.7741 -46.7346 175° South  Level Estimated
Sat 04:28:00 AM -20.8895 -46.7233 175° South  Level Estimated
Sat 04:29:00 AM -21.0049 -46.7120 175° South  Level Estimated
Sat 04:30:00 AM -21.1203 -46.7006 175° South  Level Estimated
Sat 04:31:00 AM -21.2358 -46.6893 175° South  Level Estimated
Sat 04:32:00 AM -21.3512 -46.6779 175° South  Level Estimated
Sat 04:33:00 AM -21.4666 -46.6665 175° South  Level Estimated
Sat 04:34:00 AM -21.5819 -46.6551 175° South  Level Estimated
Sat 04:35:00 AM -21.6973 -46.6437 175° South  Level Estimated
Sat 04:36:00 AM -21.8127 -46.6322 175° South  Level Estimated
Sat 04:37:00 AM -21.9282 -46.6208 175° South  Level Estimated
Sat 04:38:00 AM -22.0436 -46.6093 175° South  Level Estimated
Sat 04:39:00 AM -22.1590 -46.5978 175° South  Level Estimated
Sat 04:40:00 AM -22.2743 -46.5862 175° South  Level Estimated
Sat 04:41:00 AM -22.3897 -46.5747 175° South  Level Estimated
Sat 04:42:00 AM -22.5051 -46.5631 175° South  Level Estimated
Sat 04:43:00 AM -22.6205 -46.5515 175° South  Level Estimated
Sat 04:44:00 AM -22.7359 -46.5399 175° South  Level Estimated
Sat 04:45:00 AM -22.8513 -46.5283 175° South  Level Estimated
Sat 04:46:00 AM -22.9667 -46.5167 175° South  Level Estimated
Sat 04:47:00 AM -23.0821 -46.5050 175° South  Level Estimated
Sat 04:48:00 AM -23.1975 -46.4933 175° South  Level Estimated
Sat 04:49:00 AM -23.3129 -46.4816 175° South  Level Estimated
Sat 04:50:00 AM -23.4283 -46.4699 175° South  Level Estimated
Sat 04:51:00 AM -23.4321 -46.4695 175° South  Level Estimated
Sat 04:52:00 AM -23.4321 -46.4695 350° North  Level Estimated
Sat 04:53:00 AM -23.4321 -46.4695 350° North  Level Estimated
Sat 04:54:00 AM -23.4321 -46.4695 350° North  Level Estimated
Sat 04:55:00 AM -23.4321 -46.4695 350° North  Level Estimated
Sat 04:56:00 AM -23.4321 -46.4695 350° North  Level Estimated
Sat 04:57:00 AM -23.4321 -46.4695 350° North  Level Estimated
Sat 04:58:00 AM -23.4321 -46.4695 350° North  Level Estimated
Sat 04:59:00 AM -23.4321 -46.4695 350° North  Level Estimated
Sat 05:00:00 AM -23.4321 -46.4695 350° North  Level Estimated
Sat 05:01:00 AM -23.4321 -46.4695 350° North  Level Estimated
Sat 05:02:00 AM -23.4321 -46.4695 350° North  Level Estimated
Sat 05:03:00 AM -23.4321 -46.4695 350° North  Level Estimated
Sat 05:04:00 AM -23.4321 -46.4695 350° North  Level Estimated
Sat 05:05:00 AM -23.4321 -46.4695 350° North  Level Estimated
Sat 05:06:00 AM -23.4321 -46.4695 350° North  Level Estimated

Login

Don't have an account? Register now (free) for customized features, flight alerts, and more!